createdAt,value
2023-12-20T00:00:58.701Z,101171.66
2023-12-20T00:06:20.413Z,101158.84
2023-12-20T00:11:43.354Z,101164.91
2023-12-20T00:17:05.364Z,101162.34
2023-12-20T00:22:26.994Z,101143.53
2023-12-20T00:27:48.926Z,101150.44
2023-12-20T00:33:10.819Z,101142.75
2023-12-20T00:38:32.409Z,101137.59
2023-12-20T00:43:53.998Z,101135.88
2023-12-20T00:49:17.861Z,101146.16
2023-12-20T00:54:39.467Z,101139.28
2023-12-20T01:00:01.083Z,101129.81
2023-12-20T01:05:24.423Z,101127.22
2023-12-20T01:10:47.836Z,101112.66
2023-12-20T01:16:12.589Z,101108.34
2023-12-20T01:21:34.195Z,101113.50
2023-12-20T01:26:55.772Z,101110.97
2023-12-20T01:32:17.383Z,101107.63
2023-12-20T01:37:38.943Z,101092.22
2023-12-20T01:43:09.371Z,101104.28
2023-12-20T01:48:33.384Z,101088.00
2023-12-20T01:53:58.796Z,101093.19
2023-12-20T01:59:21.592Z,101076.88
2023-12-20T02:04:44.389Z,101067.47
2023-12-20T02:10:06.330Z,101072.63
2023-12-20T02:15:28.048Z,101067.47
2023-12-20T02:20:49.671Z,101064.88
2023-12-20T02:26:11.772Z,101059.75
2023-12-20T02:31:33.735Z,101052.81
2023-12-20T02:36:55.590Z,101035.69
2023-12-20T02:42:17.238Z,101039.09
2023-12-20T02:47:38.816Z,101041.63
2023-12-20T02:53:00.447Z,101040.75
2023-12-20T02:58:22.044Z,101029.66
2023-12-20T03:03:43.732Z,101027.88
2023-12-20T03:09:05.635Z,101029.56
2023-12-20T03:14:27.192Z,101016.72
2023-12-20T03:19:48.862Z,101014.94
2023-12-20T03:25:10.538Z,101016.59
2023-12-20T03:30:32.261Z,100992.56
2023-12-20T03:35:53.877Z,101002.81
2023-12-20T03:41:15.453Z,100995.09
2023-12-20T03:46:37.086Z,100984.78
2023-12-20T03:51:58.848Z,100974.47
2023-12-20T03:57:20.476Z,100967.63
2023-12-20T04:02:42.939Z,100970.19
2023-12-20T04:08:05.281Z,100972.75
2023-12-20T04:13:26.883Z,100952.97
2023-12-20T04:18:48.521Z,100957.34
2023-12-20T04:24:10.153Z,100967.63
2023-12-20T04:29:31.774Z,100960.78
2023-12-20T04:34:53.450Z,100974.47
2023-12-20T04:40:15.107Z,100965.88
2023-12-20T04:45:36.911Z,100969.28
2023-12-20T04:50:58.587Z,100947.03
2023-12-20T04:56:20.437Z,100958.13
2023-12-20T05:01:42.591Z,100940.13
2023-12-20T05:07:06.299Z,100941.81
2023-12-20T05:12:28.148Z,100936.66
2023-12-20T05:17:50.133Z,100932.41
2023-12-20T05:23:14.006Z,100940.03
2023-12-20T05:28:35.617Z,100939.16
2023-12-20T05:33:57.329Z,100927.19
2023-12-20T05:39:18.995Z,100926.13
2023-12-20T05:44:40.671Z,100925.34
2023-12-20T05:50:02.306Z,100926.09
2023-12-20T05:55:23.940Z,100923.59
2023-12-20T06:00:45.574Z,100920.97
2023-12-20T06:06:13.917Z,100914.88
2023-12-20T06:11:38.793Z,100909.72
2023-12-20T06:17:00.422Z,100905.38
2023-12-20T06:22:22.059Z,100889.97
2023-12-20T06:27:43.952Z,100881.41
2023-12-20T06:33:07.827Z,100883.94
2023-12-20T06:38:29.425Z,100878.75
2023-12-20T06:43:54.205Z,100871.09
2023-12-20T06:49:16.116Z,100864.16
2023-12-20T06:54:37.725Z,100854.72
2023-12-20T06:59:59.308Z,100864.09
2023-12-20T07:05:21.274Z,100857.19
2023-12-20T07:10:43.009Z,100851.25
2023-12-20T07:16:04.954Z,100846.91
2023-12-20T07:21:26.557Z,100850.34
2023-12-20T07:26:48.160Z,100849.44
2023-12-20T07:32:09.739Z,100834.81
2023-12-20T07:37:31.279Z,100830.53
2023-12-20T07:42:52.964Z,100830.47
2023-12-20T07:48:15.198Z,100821.69
2023-12-20T07:53:36.842Z,100828.47
2023-12-20T07:59:00.616Z,100822.47
2023-12-20T08:04:22.623Z,100830.09
2023-12-20T08:09:44.885Z,100824.13
2023-12-20T08:15:07.193Z,100817.22
2023-12-20T08:20:36.712Z,100812.09
2023-12-20T08:26:09.108Z,100796.75
2023-12-20T08:31:30.805Z,100805.19
2023-12-20T08:36:55.152Z,100805.19
2023-12-20T08:42:16.752Z,100807.78
2023-12-20T08:47:38.384Z,100794.94
2023-12-20T08:52:59.992Z,100799.28
2023-12-20T08:58:21.645Z,100786.38
2023-12-20T09:03:43.485Z,100766.59
2023-12-20T09:09:05.134Z,100764.84
2023-12-20T09:14:27.257Z,100749.22
2023-12-20T09:19:48.893Z,100866.75
2023-12-20T09:25:12.231Z,100880.16
2023-12-20T09:30:34.371Z,100888.47
2023-12-20T09:35:56.274Z,100884.50
2023-12-20T09:41:17.931Z,100884.75
2023-12-20T09:46:50.475Z,100888.25
2023-12-20T09:52:12.315Z,100881.41
2023-12-20T09:57:34.629Z,100856.56
2023-12-20T10:03:01.237Z,100874.47
2023-12-20T10:08:23.929Z,100876.16
2023-12-20T10:13:48.436Z,100898.34
2023-12-20T10:19:10.142Z,100892.34
2023-12-20T10:24:32.108Z,100910.22
2023-12-20T10:29:54.225Z,100908.44
2023-12-20T10:35:15.959Z,100886.13
2023-12-20T10:40:38.415Z,100880.09
2023-12-20T10:46:00.794Z,100882.53
2023-12-20T10:51:24.077Z,100873.84
2023-12-20T10:56:52.940Z,100884.00
2023-12-20T11:02:14.699Z,100865.00
2023-12-20T11:07:48.561Z,100853.75
2023-12-20T11:13:17.917Z,100861.25
2023-12-20T11:18:42.145Z,100856.00
2023-12-20T11:24:05.038Z,100840.44
2023-12-20T11:29:39.113Z,100842.13
2023-12-20T11:35:03.346Z,100838.72
2023-12-20T11:40:26.443Z,100835.16
2023-12-20T11:45:52.776Z,100862.44
2023-12-20T11:51:15.123Z,100837.56
2023-12-20T11:56:37.415Z,100826.22
2023-12-20T12:02:02.471Z,100832.91
2023-12-20T12:07:24.479Z,100830.19
2023-12-20T12:12:46.569Z,100836.97
2023-12-20T12:18:08.537Z,100828.25
2023-12-20T12:23:30.216Z,100833.22
2023-12-20T12:28:51.943Z,100822.94
2023-12-20T12:34:13.765Z,100840.25
2023-12-20T12:39:35.447Z,100837.41
2023-12-20T12:44:57.538Z,100841.06
2023-12-20T12:50:19.325Z,100832.59
2023-12-20T12:55:41.071Z,100832.56
2023-12-20T13:01:04.371Z,100813.44
2023-12-20T13:06:26.076Z,100809.00
2023-12-20T13:11:47.680Z,100824.41
2023-12-20T13:17:09.249Z,100822.63
2023-12-20T13:22:31.033Z,100828.53
2023-12-20T13:27:52.724Z,100826.88
2023-12-20T13:33:14.356Z,100824.31
2023-12-20T13:38:35.988Z,100824.31
2023-12-20T13:43:57.577Z,100824.31
2023-12-20T13:49:19.245Z,100814.88
2023-12-20T13:54:40.830Z,100815.78
2023-12-20T14:00:02.415Z,100803.81
2023-12-20T14:05:28.103Z,100799.47
2023-12-20T14:10:51.290Z,100800.41
2023-12-20T14:16:13.537Z,100798.59
2023-12-20T14:21:35.234Z,100798.59
2023-12-20T14:26:56.907Z,100795.09
2023-12-20T14:32:18.481Z,100805.44
2023-12-20T14:37:41.701Z,100796.88
2023-12-20T14:43:05.361Z,100803.69
2023-12-20T14:48:28.808Z,100784.03
2023-12-20T14:53:50.417Z,100796.91
2023-12-20T14:59:12.079Z,100782.34
2023-12-20T15:04:33.812Z,100775.50
2023-12-20T15:09:55.529Z,100780.56
2023-12-20T15:15:17.157Z,100799.50
2023-12-20T15:20:38.766Z,100773.03
2023-12-20T15:26:00.402Z,100774.81
2023-12-20T15:31:27.554Z,100790.34
2023-12-20T15:36:49.248Z,100795.47
2023-12-20T15:42:10.946Z,100785.25
2023-12-20T15:47:32.991Z,100785.19
2023-12-20T15:52:54.579Z,100790.34
2023-12-20T15:58:16.210Z,100795.41
2023-12-20T16:03:41.300Z,100778.47
2023-12-20T16:09:08.607Z,100769.13
2023-12-20T16:14:30.692Z,100778.66
2023-12-20T16:19:52.789Z,100780.47
2023-12-20T16:25:14.695Z,100773.63
2023-12-20T16:30:36.710Z,100777.06
2023-12-20T16:35:58.593Z,100774.50
2023-12-20T16:41:20.209Z,100783.19
2023-12-20T16:46:42.846Z,100755.75
2023-12-20T16:52:06.275Z,100749.81
2023-12-20T16:57:28.011Z,100754.94
2023-12-20T17:02:49.642Z,100750.59
2023-12-20T17:08:11.290Z,100729.16
2023-12-20T17:13:33.000Z,100729.16
2023-12-20T17:18:54.651Z,100717.13
2023-12-20T17:24:16.245Z,100718.88
2023-12-20T17:29:37.874Z,100708.66
2023-12-20T17:34:59.471Z,100691.56
2023-12-20T17:40:21.214Z,100686.50
2023-12-20T17:45:42.889Z,100674.44
2023-12-20T17:51:04.759Z,100667.63
2023-12-20T17:56:26.333Z,100656.56
2023-12-20T18:01:47.979Z,100649.66
2023-12-20T18:07:10.321Z,100646.16
2023-12-20T18:12:32.161Z,100620.53
2023-12-20T18:17:53.773Z,100623.06
2023-12-20T18:23:16.023Z,100610.13
2023-12-20T18:28:38.150Z,100583.53
2023-12-20T18:33:59.922Z,100574.91
2023-12-20T18:39:21.653Z,100550.94
2023-12-20T18:44:43.284Z,100544.06
2023-12-20T18:50:08.913Z,100531.19
2023-12-20T18:55:30.671Z,100519.97
2023-12-20T19:00:52.489Z,100499.41
2023-12-20T19:06:14.219Z,100486.41
2023-12-20T19:11:35.974Z,100458.88
2023-12-20T19:17:00.119Z,100454.41
2023-12-20T19:22:21.725Z,100432.81
2023-12-20T19:27:44.483Z,100419.69
2023-12-20T19:33:06.409Z,100394.69
2023-12-20T19:38:28.178Z,100376.47
2023-12-20T19:43:49.967Z,100373.59
2023-12-20T19:49:11.677Z,100361.50
2023-12-20T19:54:33.549Z,100339.00
2023-12-20T19:59:55.430Z,100338.09
2023-12-20T20:05:17.141Z,100317.19
2023-12-20T20:10:39.246Z,100306.72
2023-12-20T20:16:00.888Z,100304.66
2023-12-20T20:21:22.521Z,100289.91
2023-12-20T20:26:44.101Z,100294.03
2023-12-20T20:32:06.964Z,100287.81
2023-12-20T20:37:28.587Z,100278.16
2023-12-20T20:42:50.158Z,100279.81
2023-12-20T20:48:21.382Z,100260.81
2023-12-20T20:53:53.899Z,100251.94
2023-12-20T20:59:20.250Z,100226.91
2023-12-20T21:04:41.909Z,100213.84
2023-12-20T21:10:03.690Z,100207.41
2023-12-20T21:15:25.477Z,100198.81
2023-12-20T21:20:48.772Z,100209.91
2023-12-20T21:26:12.266Z,100212.19
2023-12-20T21:31:34.183Z,100223.16
2023-12-20T21:36:56.101Z,100211.97
2023-12-20T21:42:17.763Z,100226.53
2023-12-20T21:47:39.391Z,100214.31
2023-12-20T21:53:01.084Z,100207.53
2023-12-20T21:58:22.689Z,100204.78
2023-12-20T22:03:44.292Z,100208.03
2023-12-20T22:09:05.879Z,100210.50
2023-12-20T22:14:30.196Z,100202.69
2023-12-20T22:19:51.852Z,100201.69
2023-12-20T22:25:13.607Z,100194.63
2023-12-20T22:30:35.350Z,100183.31
2023-12-20T22:35:56.934Z,100174.56
2023-12-20T22:41:18.525Z,100171.09
2023-12-20T22:46:41.613Z,100153.72
2023-12-20T22:52:03.489Z,100151.03
2023-12-20T22:57:25.294Z,100149.91
2023-12-20T23:02:47.053Z,100144.59
2023-12-20T23:08:08.902Z,100136.78
2023-12-20T23:13:30.581Z,100138.34
2023-12-20T23:18:52.284Z,100122.75
2023-12-20T23:24:13.978Z,100145.06
2023-12-20T23:29:38.114Z,100120.16
2023-12-20T23:35:08.567Z,100125.19
2023-12-20T23:40:35.059Z,100137.91
2023-12-20T23:45:56.698Z,100144.84
2023-12-20T23:51:18.383Z,100146.56
2023-12-20T23:56:40.113Z,100141.25
